ウダーチヌイ の空港の天気 - METARとTAF

Polyarny ( UERP / PYJ ) - ロシア ウダーチヌイ
飛行場実況気象(Metar)
観測時間09/23 08:30 YAKT (09/22 23:30 UTC)
風向・風速南 2m/s
視程10km以上
天気現象
なし
気温0℃
湿度74%
気圧1016hPa
METARUERP 222330Z 19002MPS CAVOK 00/M04 Q1016 R35/090060 NOSIG RMK QFE718
過去の天気等 Google飛行場航空写真 Wunderground天気予報

過去48時間のMETAR

飛行場予報(TAF)
発表時間: 9/23 08:00 YAKT (9/22 23:00 UTC)
予報対象時間: 23日9時 YAKT ~ 24日9時 YAKT
風向・風速西南西 3m/s
視程10km以上
全天の4割程度の雲 雲底高度 760m
全天の8割程度の雲 雲底高度 3050m
23日9時 YAKT ~ 23日21時 YAKT に一時的に
風向・風速不定 1m/s
TAF UERP 222300Z 2300/2324 24003MPS 9999 SCT025 BKN100
TEMPO 2300/2312 VRB01MPS